sensor_id;sensor_type;location;lat;lon;timestamp;P1;durP1;ratioP1;P2;durP2;ratioP2
81124;SDS011;72192;52.114;5.424;2023-11-21T00:01:56;59.65;;;6.85;;
81124;SDS011;72192;52.114;5.424;2023-11-21T00:04:37;47.55;;;5.93;;
81124;SDS011;72192;52.114;5.424;2023-11-21T00:07:16;47.28;;;6.30;;
81124;SDS011;72192;52.114;5.424;2023-11-21T00:09:56;45.90;;;5.40;;
81124;SDS011;72192;52.114;5.424;2023-11-21T00:12:36;55.30;;;6.18;;
81124;SDS011;72192;52.114;5.424;2023-11-21T00:15:18;83.25;;;8.75;;
81124;SDS011;72192;52.114;5.424;2023-11-21T00:17:58;82.22;;;8.07;;
81124;SDS011;72192;52.114;5.424;2023-11-21T00:20:38;114.55;;;10.38;;
81124;SDS011;72192;52.114;5.424;2023-11-21T00:23:18;86.03;;;7.35;;
81124;SDS011;72192;52.114;5.424;2023-11-21T00:25:58;89.53;;;7.93;;
81124;SDS011;72192;52.114;5.424;2023-11-21T00:28:37;47.75;;;5.72;;
81124;SDS011;72192;52.114;5.424;2023-11-21T00:31:17;43.58;;;5.65;;
81124;SDS011;72192;52.114;5.424;2023-11-21T00:33:57;15.52;;;4.53;;
81124;SDS011;72192;52.114;5.424;2023-11-21T00:36:37;48.33;;;7.00;;
81124;SDS011;72192;52.114;5.424;2023-11-21T00:39:17;19.05;;;4.22;;
81124;SDS011;72192;52.114;5.424;2023-11-21T00:41:56;16.65;;;4.45;;
81124;SDS011;72192;52.114;5.424;2023-11-21T00:44:37;21.42;;;4.57;;
81124;SDS011;72192;52.114;5.424;2023-11-21T00:47:16;35.28;;;5.50;;
81124;SDS011;72192;52.114;5.424;2023-11-21T00:49:59;52.42;;;7.40;;
81124;SDS011;72192;52.114;5.424;2023-11-21T00:52:39;67.03;;;6.93;;
81124;SDS011;72192;52.114;5.424;2023-11-21T00:55:21;49.28;;;7.38;;
81124;SDS011;72192;52.114;5.424;2023-11-21T00:58:01;65.15;;;8.00;;
81124;SDS011;72192;52.114;5.424;2023-11-21T01:00:42;46.97;;;6.05;;
81124;SDS011;72192;52.114;5.424;2023-11-21T01:03:21;48.30;;;5.63;;
81124;SDS011;72192;52.114;5.424;2023-11-21T01:06:01;45.25;;;6.22;;
81124;SDS011;72192;52.114;5.424;2023-11-21T01:08:43;66.75;;;6.45;;
81124;SDS011;72192;52.114;5.424;2023-11-21T01:11:23;48.60;;;6.22;;
81124;SDS011;72192;52.114;5.424;2023-11-21T01:14:06;36.95;;;6.03;;
81124;SDS011;72192;52.114;5.424;2023-11-21T01:16:46;21.10;;;5.18;;
81124;SDS011;72192;52.114;5.424;2023-11-21T01:19:27;18.02;;;4.03;;
81124;SDS011;72192;52.114;5.424;2023-11-21T01:22:06;14.10;;;4.00;;
81124;SDS011;72192;52.114;5.424;2023-11-21T01:24:47;40.20;;;5.45;;
81124;SDS011;72192;52.114;5.424;2023-11-21T01:27:28;9.82;;;3.85;;
81124;SDS011;72192;52.114;5.424;2023-11-21T01:30:09;8.50;;;4.22;;
81124;SDS011;72192;52.114;5.424;2023-11-21T01:32:48;10.90;;;4.32;;
81124;SDS011;72192;52.114;5.424;2023-11-21T01:35:28;12.90;;;5.22;;
81124;SDS011;72192;52.114;5.424;2023-11-21T01:38:08;12.48;;;5.05;;
81124;SDS011;72192;52.114;5.424;2023-11-21T01:40:48;6.88;;;2.47;;
81124;SDS011;72192;52.114;5.424;2023-11-21T01:43:29;5.55;;;3.15;;
81124;SDS011;72192;52.114;5.424;2023-11-21T01:46:09;6.57;;;3.13;;
81124;SDS011;72192;52.114;5.424;2023-11-21T01:48:49;8.98;;;4.13;;
81124;SDS011;72192;52.114;5.424;2023-11-21T01:51:31;9.10;;;3.63;;
81124;SDS011;72192;52.114;5.424;2023-11-21T01:54:12;9.45;;;4.43;;
81124;SDS011;72192;52.114;5.424;2023-11-21T01:56:52;13.40;;;4.72;;
81124;SDS011;72192;52.114;5.424;2023-11-21T01:59:36;9.85;;;5.00;;
81124;SDS011;72192;52.114;5.424;2023-11-21T02:02:16;13.32;;;4.93;;
81124;SDS011;72192;52.114;5.424;2023-11-21T02:04:56;11.85;;;4.72;;
81124;SDS011;72192;52.114;5.424;2023-11-21T02:07:36;23.48;;;5.18;;
81124;SDS011;72192;52.114;5.424;2023-11-21T02:10:19;10.70;;;4.30;;
81124;SDS011;72192;52.114;5.424;2023-11-21T02:13:02;10.15;;;3.75;;
81124;SDS011;72192;52.114;5.424;2023-11-21T02:15:42;8.45;;;3.83;;
81124;SDS011;72192;52.114;5.424;2023-11-21T02:18:22;11.25;;;4.50;;
81124;SDS011;72192;52.114;5.424;2023-11-21T02:21:03;9.07;;;4.32;;
81124;SDS011;72192;52.114;5.424;2023-11-21T02:23:44;11.07;;;4.80;;
81124;SDS011;72192;52.114;5.424;2023-11-21T02:26:26;11.60;;;4.28;;
81124;SDS011;72192;52.114;5.424;2023-11-21T02:29:06;11.13;;;4.55;;
81124;SDS011;72192;52.114;5.424;2023-11-21T02:31:51;11.50;;;3.92;;
81124;SDS011;72192;52.114;5.424;2023-11-21T02:34:32;10.52;;;5.20;;
81124;SDS011;72192;52.114;5.424;2023-11-21T02:37:12;10.50;;;4.40;;
81124;SDS011;72192;52.114;5.424;2023-11-21T02:39:51;12.80;;;4.95;;
81124;SDS011;72192;52.114;5.424;2023-11-21T02:42:31;13.93;;;5.53;;
81124;SDS011;72192;52.114;5.424;2023-11-21T02:45:11;14.90;;;5.65;;
81124;SDS011;72192;52.114;5.424;2023-11-21T02:47:52;11.77;;;5.40;;
81124;SDS011;72192;52.114;5.424;2023-11-21T02:53:15;13.13;;;5.35;;
81124;SDS011;72192;52.114;5.424;2023-11-21T02:55:54;12.88;;;5.43;;
81124;SDS011;72192;52.114;5.424;2023-11-21T02:58:34;12.95;;;5.55;;
81124;SDS011;72192;52.114;5.424;2023-11-21T03:01:14;10.73;;;5.07;;
81124;SDS011;72192;52.114;5.424;2023-11-21T03:03:54;12.85;;;5.25;;
81124;SDS011;72192;52.114;5.424;2023-11-21T03:06:34;13.85;;;5.57;;
81124;SDS011;72192;52.114;5.424;2023-11-21T03:09:14;9.82;;;4.75;;
81124;SDS011;72192;52.114;5.424;2023-11-21T03:11:54;13.43;;;5.38;;
81124;SDS011;72192;52.114;5.424;2023-11-21T03:14:33;14.05;;;5.82;;
81124;SDS011;72192;52.114;5.424;2023-11-21T03:17:13;13.05;;;5.45;;
81124;SDS011;72192;52.114;5.424;2023-11-21T03:19:53;14.20;;;5.00;;
81124;SDS011;72192;52.114;5.424;2023-11-21T03:22:32;12.80;;;4.93;;
81124;SDS011;72192;52.114;5.424;2023-11-21T03:25:12;13.18;;;5.35;;
81124;SDS011;72192;52.114;5.424;2023-11-21T03:27:52;12.05;;;5.53;;
81124;SDS011;72192;52.114;5.424;2023-11-21T03:30:32;22.30;;;5.68;;
81124;SDS011;72192;52.114;5.424;2023-11-21T03:33:11;14.05;;;5.63;;
81124;SDS011;72192;52.114;5.424;2023-11-21T03:35:51;11.02;;;4.70;;
81124;SDS011;72192;52.114;5.424;2023-11-21T03:38:30;13.15;;;4.75;;
81124;SDS011;72192;52.114;5.424;2023-11-21T03:41:11;14.65;;;5.03;;
81124;SDS011;72192;52.114;5.424;2023-11-21T03:43:50;13.93;;;5.20;;
81124;SDS011;72192;52.114;5.424;2023-11-21T03:46:29;12.63;;;5.68;;
81124;SDS011;72192;52.114;5.424;2023-11-21T03:49:09;13.40;;;5.03;;
81124;SDS011;72192;52.114;5.424;2023-11-21T03:51:48;11.65;;;5.10;;
81124;SDS011;72192;52.114;5.424;2023-11-21T03:54:28;12.02;;;5.47;;
81124;SDS011;72192;52.114;5.424;2023-11-21T03:57:08;13.18;;;5.40;;
81124;SDS011;72192;52.114;5.424;2023-11-21T03:59:48;14.55;;;5.32;;
81124;SDS011;72192;52.114;5.424;2023-11-21T04:02:27;15.68;;;6.05;;
81124;SDS011;72192;52.114;5.424;2023-11-21T04:05:07;16.90;;;6.10;;
81124;SDS011;72192;52.114;5.424;2023-11-21T04:07:48;14.07;;;6.40;;
81124;SDS011;72192;52.114;5.424;2023-11-21T04:10:31;12.55;;;5.95;;
81124;SDS011;72192;52.114;5.424;2023-11-21T04:13:10;19.08;;;6.80;;
81124;SDS011;72192;52.114;5.424;2023-11-21T04:15:50;13.80;;;5.65;;
81124;SDS011;72192;52.114;5.424;2023-11-21T04:18:30;13.82;;;5.20;;
81124;SDS011;72192;52.114;5.424;2023-11-21T04:21:09;14.98;;;6.15;;
81124;SDS011;72192;52.114;5.424;2023-11-21T04:23:49;14.57;;;5.95;;
81124;SDS011;72192;52.114;5.424;2023-11-21T04:26:31;13.93;;;5.95;;
81124;SDS011;72192;52.114;5.424;2023-11-21T04:29:11;11.95;;;5.97;;
81124;SDS011;72192;52.114;5.424;2023-11-21T04:31:51;16.17;;;5.65;;
81124;SDS011;72192;52.114;5.424;2023-11-21T04:34:31;13.23;;;5.53;;
81124;SDS011;72192;52.114;5.424;2023-11-21T04:37:11;16.98;;;5.72;;
81124;SDS011;72192;52.114;5.424;2023-11-21T04:39:51;13.65;;;5.55;;
81124;SDS011;72192;52.114;5.424;2023-11-21T04:42:30;15.90;;;5.70;;
81124;SDS011;72192;52.114;5.424;2023-11-21T04:45:11;16.90;;;6.38;;
81124;SDS011;72192;52.114;5.424;2023-11-21T04:47:50;19.88;;;6.22;;
81124;SDS011;72192;52.114;5.424;2023-11-21T04:50:30;14.02;;;6.03;;
81124;SDS011;72192;52.114;5.424;2023-11-21T04:53:10;17.92;;;5.63;;
81124;SDS011;72192;52.114;5.424;2023-11-21T04:55:52;14.38;;;5.93;;
81124;SDS011;72192;52.114;5.424;2023-11-21T04:58:32;15.18;;;6.45;;
81124;SDS011;72192;52.114;5.424;2023-11-21T05:01:13;15.23;;;6.32;;
81124;SDS011;72192;52.114;5.424;2023-11-21T05:03:52;17.85;;;6.22;;
81124;SDS011;72192;52.114;5.424;2023-11-21T05:06:33;15.95;;;6.47;;
81124;SDS011;72192;52.114;5.424;2023-11-21T05:09:13;16.15;;;6.28;;
81124;SDS011;72192;52.114;5.424;2023-11-21T05:11:53;15.75;;;5.93;;
81124;SDS011;72192;52.114;5.424;2023-11-21T05:14:33;16.20;;;6.47;;
81124;SDS011;72192;52.114;5.424;2023-11-21T05:17:13;20.77;;;7.07;;
81124;SDS011;72192;52.114;5.424;2023-11-21T05:19:52;17.13;;;6.60;;
81124;SDS011;72192;52.114;5.424;2023-11-21T05:22:32;18.73;;;6.65;;
81124;SDS011;72192;52.114;5.424;2023-11-21T05:25:12;16.23;;;6.43;;
81124;SDS011;72192;52.114;5.424;2023-11-21T05:27:52;19.38;;;6.95;;
81124;SDS011;72192;52.114;5.424;2023-11-21T05:30:37;19.15;;;6.70;;
81124;SDS011;72192;52.114;5.424;2023-11-21T05:33:17;14.45;;;6.00;;
81124;SDS011;72192;52.114;5.424;2023-11-21T05:35:56;16.85;;;5.80;;
81124;SDS011;72192;52.114;5.424;2023-11-21T05:38:36;16.13;;;6.47;;
81124;SDS011;72192;52.114;5.424;2023-11-21T05:41:16;15.90;;;6.28;;
81124;SDS011;72192;52.114;5.424;2023-11-21T05:43:55;17.48;;;5.93;;
81124;SDS011;72192;52.114;5.424;2023-11-21T05:46:35;15.68;;;5.88;;
81124;SDS011;72192;52.114;5.424;2023-11-21T05:49:15;17.00;;;6.15;;
81124;SDS011;72192;52.114;5.424;2023-11-21T05:51:54;19.10;;;6.18;;
81124;SDS011;72192;52.114;5.424;2023-11-21T05:54:35;20.02;;;6.47;;
81124;SDS011;72192;52.114;5.424;2023-11-21T05:57:15;14.88;;;5.78;;
81124;SDS011;72192;52.114;5.424;2023-11-21T05:59:54;14.13;;;5.55;;
81124;SDS011;72192;52.114;5.424;2023-11-21T06:02:34;15.43;;;5.72;;
81124;SDS011;72192;52.114;5.424;2023-11-21T06:05:24;17.52;;;6.57;;
81124;SDS011;72192;52.114;5.424;2023-11-21T06:08:05;12.45;;;5.40;;
81124;SDS011;72192;52.114;5.424;2023-11-21T06:10:45;12.55;;;6.03;;
81124;SDS011;72192;52.114;5.424;2023-11-21T06:13:27;16.33;;;5.25;;
81124;SDS011;72192;52.114;5.424;2023-11-21T06:16:06;17.67;;;6.45;;
81124;SDS011;72192;52.114;5.424;2023-11-21T06:18:47;20.45;;;6.00;;
81124;SDS011;72192;52.114;5.424;2023-11-21T06:21:27;15.95;;;5.55;;
81124;SDS011;72192;52.114;5.424;2023-11-21T06:24:06;18.10;;;6.72;;
81124;SDS011;72192;52.114;5.424;2023-11-21T06:26:46;19.92;;;6.07;;
81124;SDS011;72192;52.114;5.424;2023-11-21T06:29:26;16.77;;;6.57;;
81124;SDS011;72192;52.114;5.424;2023-11-21T06:32:06;19.85;;;6.53;;
81124;SDS011;72192;52.114;5.424;2023-11-21T06:34:46;15.05;;;6.28;;
81124;SDS011;72192;52.114;5.424;2023-11-21T06:37:28;17.42;;;5.57;;
81124;SDS011;72192;52.114;5.424;2023-11-21T06:40:09;13.00;;;5.97;;
81124;SDS011;72192;52.114;5.424;2023-11-21T06:42:51;15.88;;;5.93;;
81124;SDS011;72192;52.114;5.424;2023-11-21T06:45:36;14.45;;;5.18;;
81124;SDS011;72192;52.114;5.424;2023-11-21T06:48:16;18.27;;;5.78;;
81124;SDS011;72192;52.114;5.424;2023-11-21T06:50:56;19.05;;;7.13;;
81124;SDS011;72192;52.114;5.424;2023-11-21T06:53:36;15.05;;;5.68;;
81124;SDS011;72192;52.114;5.424;2023-11-21T06:56:19;17.42;;;5.82;;
81124;SDS011;72192;52.114;5.424;2023-11-21T06:58:59;17.50;;;5.30;;
81124;SDS011;72192;52.114;5.424;2023-11-21T07:01:38;13.68;;;5.93;;
81124;SDS011;72192;52.114;5.424;2023-11-21T07:04:19;11.20;;;5.50;;
81124;SDS011;72192;52.114;5.424;2023-11-21T07:06:59;15.07;;;5.95;;
81124;SDS011;72192;52.114;5.424;2023-11-21T07:09:40;14.05;;;5.68;;
81124;SDS011;72192;52.114;5.424;2023-11-21T07:12:19;15.60;;;5.75;;
81124;SDS011;72192;52.114;5.424;2023-11-21T07:15:01;13.02;;;6.38;;
81124;SDS011;72192;52.114;5.424;2023-11-21T07:17:47;14.80;;;5.38;;
81124;SDS011;72192;52.114;5.424;2023-11-21T07:20:26;11.40;;;5.18;;
81124;SDS011;72192;52.114;5.424;2023-11-21T07:23:08;14.20;;;5.65;;
81124;SDS011;72192;52.114;5.424;2023-11-21T07:25:48;15.45;;;6.00;;
81124;SDS011;72192;52.114;5.424;2023-11-21T07:28:28;15.68;;;6.35;;
81124;SDS011;72192;52.114;5.424;2023-11-21T07:31:09;16.73;;;6.28;;
81124;SDS011;72192;52.114;5.424;2023-11-21T07:33:48;16.15;;;5.97;;
81124;SDS011;72192;52.114;5.424;2023-11-21T07:36:29;16.75;;;5.95;;
81124;SDS011;72192;52.114;5.424;2023-11-21T07:39:09;12.50;;;5.18;;
81124;SDS011;72192;52.114;5.424;2023-11-21T07:41:48;18.45;;;5.45;;
81124;SDS011;72192;52.114;5.424;2023-11-21T07:44:28;12.23;;;4.65;;
81124;SDS011;72192;52.114;5.424;2023-11-21T07:47:08;13.35;;;5.18;;
81124;SDS011;72192;52.114;5.424;2023-11-21T07:49:47;11.43;;;4.40;;
81124;SDS011;72192;52.114;5.424;2023-11-21T07:52:27;13.13;;;4.82;;
81124;SDS011;72192;52.114;5.424;2023-11-21T07:55:07;12.65;;;5.38;;
81124;SDS011;72192;52.114;5.424;2023-11-21T07:57:46;10.43;;;4.60;;
81124;SDS011;72192;52.114;5.424;2023-11-21T08:00:26;11.13;;;5.05;;
81124;SDS011;72192;52.114;5.424;2023-11-21T08:03:08;10.10;;;4.57;;
81124;SDS011;72192;52.114;5.424;2023-11-21T08:05:50;14.55;;;4.72;;
81124;SDS011;72192;52.114;5.424;2023-11-21T08:08:30;10.20;;;4.15;;
81124;SDS011;72192;52.114;5.424;2023-11-21T08:11:10;12.63;;;4.53;;
81124;SDS011;72192;52.114;5.424;2023-11-21T08:13:50;12.75;;;4.20;;
81124;SDS011;72192;52.114;5.424;2023-11-21T08:16:30;12.18;;;4.40;;
81124;SDS011;72192;52.114;5.424;2023-11-21T08:19:10;13.40;;;4.38;;
81124;SDS011;72192;52.114;5.424;2023-11-21T08:21:50;11.65;;;4.25;;
81124;SDS011;72192;52.114;5.424;2023-11-21T08:24:32;13.75;;;4.93;;
81124;SDS011;72192;52.114;5.424;2023-11-21T08:27:12;11.38;;;4.03;;
81124;SDS011;72192;52.114;5.424;2023-11-21T08:29:53;10.48;;;4.28;;
81124;SDS011;72192;52.114;5.424;2023-11-21T08:32:34;13.48;;;4.05;;
81124;SDS011;72192;52.114;5.424;2023-11-21T08:35:24;8.77;;;3.65;;
81124;SDS011;72192;52.114;5.424;2023-11-21T08:38:04;10.68;;;3.70;;
81124;SDS011;72192;52.114;5.424;2023-11-21T08:40:44;8.38;;;3.22;;
81124;SDS011;72192;52.114;5.424;2023-11-21T08:43:23;8.93;;;3.30;;
81124;SDS011;72192;52.114;5.424;2023-11-21T08:46:05;12.77;;;4.07;;
81124;SDS011;72192;52.114;5.424;2023-11-21T08:48:46;10.80;;;3.90;;
81124;SDS011;72192;52.114;5.424;2023-11-21T08:51:26;9.38;;;3.65;;
81124;SDS011;72192;52.114;5.424;2023-11-21T08:54:05;11.00;;;3.97;;
81124;SDS011;72192;52.114;5.424;2023-11-21T08:56:49;8.60;;;3.50;;
81124;SDS011;72192;52.114;5.424;2023-11-21T08:59:29;10.63;;;4.38;;
81124;SDS011;72192;52.114;5.424;2023-11-21T09:02:08;11.00;;;4.75;;
81124;SDS011;72192;52.114;5.424;2023-11-21T09:04:48;13.25;;;4.82;;
81124;SDS011;72192;52.114;5.424;2023-11-21T09:07:30;11.38;;;4.55;;
81124;SDS011;72192;52.114;5.424;2023-11-21T09:10:10;13.63;;;5.45;;
81124;SDS011;72192;52.114;5.424;2023-11-21T09:12:49;12.73;;;4.50;;
81124;SDS011;72192;52.114;5.424;2023-11-21T09:15:29;14.18;;;5.05;;
81124;SDS011;72192;52.114;5.424;2023-11-21T09:18:09;13.80;;;5.57;;
81124;SDS011;72192;52.114;5.424;2023-11-21T09:20:49;11.75;;;5.43;;
81124;SDS011;72192;52.114;5.424;2023-11-21T09:23:28;14.82;;;6.22;;
81124;SDS011;72192;52.114;5.424;2023-11-21T09:26:08;13.18;;;5.10;;
81124;SDS011;72192;52.114;5.424;2023-11-21T09:28:48;15.95;;;6.05;;
81124;SDS011;72192;52.114;5.424;2023-11-21T09:31:27;13.48;;;6.60;;
81124;SDS011;72192;52.114;5.424;2023-11-21T09:34:08;13.13;;;5.65;;
81124;SDS011;72192;52.114;5.424;2023-11-21T09:36:49;15.07;;;5.93;;
81124;SDS011;72192;52.114;5.424;2023-11-21T09:39:29;14.07;;;6.03;;
81124;SDS011;72192;52.114;5.424;2023-11-21T09:42:13;15.35;;;5.95;;
81124;SDS011;72192;52.114;5.424;2023-11-21T09:45:18;12.52;;;5.38;;
81124;SDS011;72192;52.114;5.424;2023-11-21T09:48:09;16.60;;;6.72;;
81124;SDS011;72192;52.114;5.424;2023-11-21T09:50:49;16.02;;;5.93;;
81124;SDS011;72192;52.114;5.424;2023-11-21T09:53:31;15.52;;;6.18;;
81124;SDS011;72192;52.114;5.424;2023-11-21T09:56:14;14.98;;;6.05;;
81124;SDS011;72192;52.114;5.424;2023-11-21T09:58:57;17.15;;;5.75;;
81124;SDS011;72192;52.114;5.424;2023-11-21T10:01:42;16.48;;;6.35;;
81124;SDS011;72192;52.114;5.424;2023-11-21T10:04:22;14.77;;;5.35;;
81124;SDS011;72192;52.114;5.424;2023-11-21T10:07:02;15.23;;;5.28;;
81124;SDS011;72192;52.114;5.424;2023-11-21T10:09:36;14.32;;;6.03;;
81124;SDS011;72192;52.114;5.424;2023-11-21T10:12:20;14.55;;;5.60;;
81124;SDS011;72192;52.114;5.424;2023-11-21T10:15:03;14.50;;;5.47;;
81124;SDS011;72192;52.114;5.424;2023-11-21T10:17:53;16.33;;;5.68;;
81124;SDS011;72192;52.114;5.424;2023-11-21T10:20:35;13.35;;;5.80;;
81124;SDS011;72192;52.114;5.424;2023-11-21T10:23:19;14.65;;;5.32;;
81124;SDS011;72192;52.114;5.424;2023-11-21T10:26:00;14.15;;;5.88;;
81124;SDS011;72192;52.114;5.424;2023-11-21T10:28:54;13.18;;;5.82;;
81124;SDS011;72192;52.114;5.424;2023-11-21T10:31:37;11.40;;;5.18;;
81124;SDS011;72192;52.114;5.424;2023-11-21T10:34:18;11.75;;;5.78;;
81124;SDS011;72192;52.114;5.424;2023-11-21T10:37:10;15.63;;;5.22;;
81124;SDS011;72192;52.114;5.424;2023-11-21T10:39:51;10.32;;;3.95;;
81124;SDS011;72192;52.114;5.424;2023-11-21T10:42:36;11.15;;;4.78;;
81124;SDS011;72192;52.114;5.424;2023-11-21T10:45:19;9.75;;;4.45;;
81124;SDS011;72192;52.114;5.424;2023-11-21T10:48:01;11.25;;;5.05;;
81124;SDS011;72192;52.114;5.424;2023-11-21T10:50:49;12.57;;;4.60;;
81124;SDS011;72192;52.114;5.424;2023-11-21T10:53:29;12.77;;;5.28;;
81124;SDS011;72192;52.114;5.424;2023-11-21T10:56:09;10.70;;;4.72;;
81124;SDS011;72192;52.114;5.424;2023-11-21T10:58:55;12.20;;;4.43;;
81124;SDS011;72192;52.114;5.424;2023-11-21T11:01:36;10.10;;;4.03;;
81124;SDS011;72192;52.114;5.424;2023-11-21T11:04:18;12.15;;;4.38;;
81124;SDS011;72192;52.114;5.424;2023-11-21T11:07:01;9.52;;;4.00;;
81124;SDS011;72192;52.114;5.424;2023-11-21T11:09:44;8.57;;;3.88;;
81124;SDS011;72192;52.114;5.424;2023-11-21T11:12:24;11.75;;;4.15;;
81124;SDS011;72192;52.114;5.424;2023-11-21T11:15:07;12.13;;;4.72;;
81124;SDS011;72192;52.114;5.424;2023-11-21T11:17:48;12.10;;;4.72;;
81124;SDS011;72192;52.114;5.424;2023-11-21T11:20:35;12.02;;;5.30;;
81124;SDS011;72192;52.114;5.424;2023-11-21T11:23:26;11.77;;;5.20;;
81124;SDS011;72192;52.114;5.424;2023-11-21T11:26:42;12.27;;;5.45;;
81124;SDS011;72192;52.114;5.424;2023-11-21T11:38:53;12.13;;;5.85;;
81124;SDS011;72192;52.114;5.424;2023-11-21T11:41:34;12.68;;;5.40;;
81124;SDS011;72192;52.114;5.424;2023-11-21T11:47:28;13.82;;;5.40;;
81124;SDS011;72192;52.114;5.424;2023-11-21T11:50:15;12.77;;;5.38;;
81124;SDS011;72192;52.114;5.424;2023-11-21T11:53:13;11.35;;;5.18;;
81124;SDS011;72192;52.114;5.424;2023-11-21T11:59:04;13.65;;;6.13;;
81124;SDS011;72192;52.114;5.424;2023-11-21T12:01:56;15.25;;;6.47;;
81124;SDS011;72192;52.114;5.424;2023-11-21T12:04:48;13.25;;;5.75;;
81124;SDS011;72192;52.114;5.424;2023-11-21T12:07:43;14.45;;;6.07;;
81124;SDS011;72192;52.114;5.424;2023-11-21T12:10:38;13.38;;;5.95;;
81124;SDS011;72192;52.114;5.424;2023-11-21T12:13:18;14.20;;;5.80;;
81124;SDS011;72192;52.114;5.424;2023-11-21T12:15:59;15.60;;;6.88;;
81124;SDS011;72192;52.114;5.424;2023-11-21T12:18:39;14.13;;;5.97;;
81124;SDS011;72192;52.114;5.424;2023-11-21T12:21:19;14.88;;;5.97;;
81124;SDS011;72192;52.114;5.424;2023-11-21T12:23:59;13.15;;;5.95;;
81124;SDS011;72192;52.114;5.424;2023-11-21T12:26:42;12.90;;;5.55;;
81124;SDS011;72192;52.114;5.424;2023-11-21T12:29:22;16.92;;;6.80;;
81124;SDS011;72192;52.114;5.424;2023-11-21T12:32:02;13.77;;;6.15;;
81124;SDS011;72192;52.114;5.424;2023-11-21T12:37:24;14.32;;;6.28;;
81124;SDS011;72192;52.114;5.424;2023-11-21T12:40:08;15.77;;;6.65;;
81124;SDS011;72192;52.114;5.424;2023-11-21T12:42:52;15.20;;;6.65;;
81124;SDS011;72192;52.114;5.424;2023-11-21T12:45:40;14.93;;;6.57;;
81124;SDS011;72192;52.114;5.424;2023-11-21T12:48:23;15.50;;;6.57;;
81124;SDS011;72192;52.114;5.424;2023-11-21T12:51:05;14.65;;;6.90;;
81124;SDS011;72192;52.114;5.424;2023-11-21T12:53:46;14.27;;;6.65;;
81124;SDS011;72192;52.114;5.424;2023-11-21T12:56:25;17.52;;;7.05;;
81124;SDS011;72192;52.114;5.424;2023-11-21T12:59:05;15.18;;;6.57;;
81124;SDS011;72192;52.114;5.424;2023-11-21T13:01:45;16.55;;;6.97;;
81124;SDS011;72192;52.114;5.424;2023-11-21T13:04:30;17.58;;;6.75;;
81124;SDS011;72192;52.114;5.424;2023-11-21T13:07:12;18.20;;;7.25;;
81124;SDS011;72192;52.114;5.424;2023-11-21T13:09:53;16.30;;;6.50;;
81124;SDS011;72192;52.114;5.424;2023-11-21T13:12:33;13.27;;;5.75;;
81124;SDS011;72192;52.114;5.424;2023-11-21T13:15:16;14.25;;;5.85;;
81124;SDS011;72192;52.114;5.424;2023-11-21T13:18:00;15.05;;;5.95;;
81124;SDS011;72192;52.114;5.424;2023-11-21T13:20:40;15.18;;;6.30;;
81124;SDS011;72192;52.114;5.424;2023-11-21T13:23:24;12.82;;;5.18;;
81124;SDS011;72192;52.114;5.424;2023-11-21T13:26:07;12.32;;;4.63;;
81124;SDS011;72192;52.114;5.424;2023-11-21T13:28:47;13.38;;;4.35;;
81124;SDS011;72192;52.114;5.424;2023-11-21T13:31:27;10.25;;;4.55;;
81124;SDS011;72192;52.114;5.424;2023-11-21T13:34:11;9.10;;;3.83;;
81124;SDS011;72192;52.114;5.424;2023-11-21T13:40:11;7.53;;;3.08;;
81124;SDS011;72192;52.114;5.424;2023-11-21T13:42:53;7.72;;;2.47;;
81124;SDS011;72192;52.114;5.424;2023-11-21T13:45:37;7.43;;;2.67;;
81124;SDS011;72192;52.114;5.424;2023-11-21T13:48:19;9.38;;;2.80;;
81124;SDS011;72192;52.114;5.424;2023-11-21T13:51:09;6.18;;;2.13;;
81124;SDS011;72192;52.114;5.424;2023-11-21T13:53:55;7.65;;;3.13;;
81124;SDS011;72192;52.114;5.424;2023-11-21T13:56:35;9.45;;;4.07;;
81124;SDS011;72192;52.114;5.424;2023-11-21T13:59:26;13.50;;;4.15;;
81124;SDS011;72192;52.114;5.424;2023-11-21T14:04:57;13.80;;;4.88;;
81124;SDS011;72192;52.114;5.424;2023-11-21T14:07:39;12.93;;;4.95;;
81124;SDS011;72192;52.114;5.424;2023-11-21T14:10:25;15.88;;;6.20;;
81124;SDS011;72192;52.114;5.424;2023-11-21T14:13:05;18.85;;;6.82;;
81124;SDS011;72192;52.114;5.424;2023-11-21T14:15:45;15.02;;;6.43;;
81124;SDS011;72192;52.114;5.424;2023-11-21T14:18:28;16.55;;;5.95;;
81124;SDS011;72192;52.114;5.424;2023-11-21T14:21:16;16.08;;;6.32;;
81124;SDS011;72192;52.114;5.424;2023-11-21T14:23:57;17.08;;;6.22;;
81124;SDS011;72192;52.114;5.424;2023-11-21T14:26:41;17.08;;;6.05;;
81124;SDS011;72192;52.114;5.424;2023-11-21T14:29:24;16.92;;;6.07;;
81124;SDS011;72192;52.114;5.424;2023-11-21T14:32:05;18.15;;;6.95;;
81124;SDS011;72192;52.114;5.424;2023-11-21T14:34:46;17.10;;;7.22;;
81124;SDS011;72192;52.114;5.424;2023-11-21T14:37:26;18.65;;;7.68;;
81124;SDS011;72192;52.114;5.424;2023-11-21T14:40:06;19.83;;;8.30;;
81124;SDS011;72192;52.114;5.424;2023-11-21T14:42:46;17.70;;;7.40;;
81124;SDS011;72192;52.114;5.424;2023-11-21T14:45:26;17.55;;;7.20;;
81124;SDS011;72192;52.114;5.424;2023-11-21T14:48:07;17.05;;;6.78;;
81124;SDS011;72192;52.114;5.424;2023-11-21T14:50:53;17.35;;;6.90;;
81124;SDS011;72192;52.114;5.424;2023-11-21T14:56:29;16.08;;;6.82;;
81124;SDS011;72192;52.114;5.424;2023-11-21T14:59:11;18.35;;;8.13;;
81124;SDS011;72192;52.114;5.424;2023-11-21T15:01:54;21.02;;;7.75;;
81124;SDS011;72192;52.114;5.424;2023-11-21T15:04:34;24.55;;;7.93;;
81124;SDS011;72192;52.114;5.424;2023-11-21T15:07:15;18.40;;;7.63;;
81124;SDS011;72192;52.114;5.424;2023-11-21T15:09:54;19.52;;;8.43;;
81124;SDS011;72192;52.114;5.424;2023-11-21T15:12:34;17.98;;;6.90;;
81124;SDS011;72192;52.114;5.424;2023-11-21T15:15:25;21.75;;;7.97;;
81124;SDS011;72192;52.114;5.424;2023-11-21T15:18:08;18.65;;;7.47;;
81124;SDS011;72192;52.114;5.424;2023-11-21T15:20:50;17.60;;;7.72;;
81124;SDS011;72192;52.114;5.424;2023-11-21T15:23:29;17.10;;;7.88;;
81124;SDS011;72192;52.114;5.424;2023-11-21T15:26:12;16.17;;;7.07;;
81124;SDS011;72192;52.114;5.424;2023-11-21T15:28:52;18.63;;;7.38;;
81124;SDS011;72192;52.114;5.424;2023-11-21T15:31:32;16.85;;;7.03;;
81124;SDS011;72192;52.114;5.424;2023-11-21T15:34:12;15.10;;;6.55;;
81124;SDS011;72192;52.114;5.424;2023-11-21T15:36:52;17.88;;;7.80;;
81124;SDS011;72192;52.114;5.424;2023-11-21T15:39:32;14.38;;;6.57;;
81124;SDS011;72192;52.114;5.424;2023-11-21T15:42:11;12.40;;;6.20;;
81124;SDS011;72192;52.114;5.424;2023-11-21T15:44:54;13.70;;;6.00;;
81124;SDS011;72192;52.114;5.424;2023-11-21T15:47:40;12.35;;;5.40;;
81124;SDS011;72192;52.114;5.424;2023-11-21T15:50:20;13.38;;;6.22;;
81124;SDS011;72192;52.114;5.424;2023-11-21T15:52:59;14.10;;;6.75;;
81124;SDS011;72192;52.114;5.424;2023-11-21T15:55:41;12.48;;;6.07;;
81124;SDS011;72192;52.114;5.424;2023-11-21T15:58:20;11.13;;;5.85;;
81124;SDS011;72192;52.114;5.424;2023-11-21T16:01:00;12.32;;;5.65;;
81124;SDS011;72192;52.114;5.424;2023-11-21T16:03:41;11.63;;;5.53;;
81124;SDS011;72192;52.114;5.424;2023-11-21T16:06:24;10.05;;;5.50;;
81124;SDS011;72192;52.114;5.424;2023-11-21T16:08:54;13.07;;;6.00;;
81124;SDS011;72192;52.114;5.424;2023-11-21T16:11:37;11.57;;;5.50;;
81124;SDS011;72192;52.114;5.424;2023-11-21T16:14:16;13.05;;;6.03;;
81124;SDS011;72192;52.114;5.424;2023-11-21T16:16:57;13.05;;;5.60;;
81124;SDS011;72192;52.114;5.424;2023-11-21T16:19:40;11.75;;;5.90;;
81124;SDS011;72192;52.114;5.424;2023-11-21T16:22:23;12.85;;;5.90;;
81124;SDS011;72192;52.114;5.424;2023-11-21T16:27:50;12.60;;;5.35;;
81124;SDS011;72192;52.114;5.424;2023-11-21T16:30:30;12.55;;;5.57;;
81124;SDS011;72192;52.114;5.424;2023-11-21T16:33:11;12.32;;;6.07;;